Time;durP1;ratioP1;P1;durP2;ratioP2;P2;SDS_P1;SDS_P2;PMS_P1;PMS_P2;Temp;Humidity;BMP_temperature;BMP_pressure;BME280_temperature;BME280_humidity;BME280_pressure;Samples;Min_cycle;Max_cycle;Signal;HPM_P1;HPM_P2
2021/11/23 00:00:19;;;;;;;4.07;2.88;;;;;;;0.36;100.00;96679.28;5010665;28;24435;-75
2021/11/23 00:02:45;;;;;;;3.63;3.00;;;;;;;0.30;100.00;96689.50;5010804;28;24435;-75
2021/11/23 00:05:13;;;;;;;3.38;3.08;;;;;;;0.40;100.00;96686.88;5010532;28;24980;-75
2021/11/23 00:07:40;;;;;;;3.47;3.17;;;;;;;0.40;100.00;96693.69;5010618;28;24483;-75
2021/11/23 00:10:08;;;;;;;4.07;3.13;;;;;;;0.20;100.00;96693.84;5010732;28;24444;-75
2021/11/23 00:12:34;;;;;;;3.17;2.90;;;;;;;0.15;100.00;96691.34;5010732;28;24423;-75
2021/11/23 00:15:03;;;;;;;4.88;3.53;;;;;;;0.09;100.00;96690.53;5010821;28;24483;-75
2021/11/23 00:17:31;;;;;;;3.65;3.00;;;;;;;0.19;100.00;96699.81;5010684;28;24436;-75
2021/11/23 00:19:58;;;;;;;3.47;3.17;;;;;;;0.14;100.00;96692.16;5011047;28;24433;-75
2021/11/23 00:22:24;;;;;;;3.38;3.08;;;;;;;0.22;100.00;96698.06;5010816;28;24432;-75
2021/11/23 00:24:50;;;;;;;4.20;3.20;;;;;;;0.41;100.00;96705.59;5010664;28;24518;-75
2021/11/23 00:27:17;;;;;;;4.13;3.72;;;;;;;0.26;100.00;96700.56;5010495;28;24494;-75
2021/11/23 00:29:43;;;;;;;3.38;3.10;;;;;;;0.26;100.00;96698.91;5010208;28;24479;-75
2021/11/23 00:32:11;;;;;;;6.95;3.22;;;;;;;0.29;100.00;96696.31;5010632;28;24444;-75
2021/11/23 00:34:38;;;;;;;3.60;3.30;;;;;;;0.30;100.00;96695.47;5010738;28;24428;-75
2021/11/23 00:37:04;;;;;;;4.17;3.60;;;;;;;0.13;100.00;96697.28;5010305;28;24435;-75
2021/11/23 00:39:30;;;;;;;5.57;3.90;;;;;;;0.10;100.00;96698.16;5013461;28;24428;-75
2021/11/23 00:41:57;;;;;;;4.10;3.70;;;;;;;0.23;100.00;96694.66;5014251;28;24456;-75
2021/11/23 00:44:23;;;;;;;3.90;3.60;;;;;;;0.19;100.00;96690.44;5014273;28;24955;-75
2021/11/23 00:46:50;;;;;;;5.30;3.22;;;;;;;0.13;100.00;96694.75;5013810;28;24993;-75
2021/11/23 00:49:18;;;;;;;4.33;3.40;;;;;;;0.08;100.00;96693.94;5014319;28;24420;-75
2021/11/23 00:51:45;;;;;;;3.97;3.58;;;;;;;0.14;100.00;96699.81;5014212;28;24563;-75
2021/11/23 00:54:12;;;;;;;4.25;3.78;;;;;;;0.04;100.00;96700.75;5014199;28;24435;-75
2021/11/23 00:56:38;;;;;;;4.28;3.38;;;;;;;0.11;100.00;96699.84;5013713;28;24942;-76
2021/11/23 00:59:06;;;;;;;4.70;3.67;;;;;;;-0.19;100.00;96705.97;5014179;28;24935;-75
2021/11/23 01:01:32;;;;;;;3.78;3.47;;;;;;;-0.21;100.00;96704.31;5013903;28;24421;-75
2021/11/23 01:03:59;;;;;;;4.53;3.50;;;;;;;-0.18;100.00;96701.75;5014293;28;24496;-75
2021/11/23 01:06:27;;;;;;;4.65;3.63;;;;;;;-0.27;100.00;96706.00;5013711;28;24424;-75
2021/11/23 01:08:54;;;;;;;4.05;3.65;;;;;;;-0.22;100.00;96700.91;5013898;28;24428;-75
2021/11/23 01:11:21;;;;;;;4.13;3.40;;;;;;;-0.32;100.00;96705.19;5013936;28;24483;-75
2021/11/23 01:13:49;;;;;;;4.18;3.78;;;;;;;-0.43;100.00;96701.03;5013602;28;24969;-75
2021/11/23 01:16:16;;;;;;;4.10;3.23;;;;;;;-0.32;100.00;96705.19;5013544;28;24427;-75
2021/11/23 01:18:43;;;;;;;3.78;3.30;;;;;;;-0.43;100.00;96696.78;5013539;28;25011;-75
2021/11/23 01:21:10;;;;;;;3.97;3.58;;;;;;;-0.37;100.00;96704.38;5013748;28;24429;-75
2021/11/23 01:23:38;;;;;;;4.00;3.70;;;;;;;-0.46;100.00;96712.06;5013623;28;24555;-75
2021/11/23 01:26:05;;;;;;;4.30;3.28;;;;;;;-0.45;100.00;96707.81;5013305;28;25034;-75
2021/11/23 01:28:31;;;;;;;4.10;3.70;;;;;;;-0.60;100.00;96716.34;5013490;28;24431;-75
2021/11/23 01:31:00;;;;;;;6.93;4.07;;;;;;;-0.48;100.00;96708.69;5013497;28;24498;-76
2021/11/23 01:33:27;;;;;;;3.90;3.60;;;;;;;-0.52;100.00;96719.69;5013473;28;24427;-76
2021/11/23 01:35:53;;;;;;;4.20;3.65;;;;;;;-0.54;100.00;96716.34;5013163;28;24539;-75
2021/11/23 01:38:20;;;;;;;5.53;3.75;;;;;;;-0.47;100.00;96725.63;5013288;28;24423;-75
2021/11/23 01:40:48;;;;;;;4.30;3.90;;;;;;;-0.53;100.00;96726.50;5013677;28;24417;-76
2021/11/23 01:43:14;;;;;;;4.18;3.78;;;;;;;-0.51;100.00;96729.06;5013094;28;24479;-75
2021/11/23 01:45:42;;;;;;;3.78;3.38;;;;;;;-0.47;100.00;96733.28;5012966;28;24478;-75
2021/11/23 01:48:09;;;;;;;4.95;3.80;;;;;;;-0.52;100.00;96732.41;5013273;28;24850;-76
2021/11/23 01:50:37;;;;;;;4.68;4.28;;;;;;;-0.50;100.00;96728.19;5012490;28;24830;-75
2021/11/23 01:53:06;;;;;;;4.75;4.20;;;;;;;-0.45;100.00;96729.00;5013188;28;24431;-75
2021/11/23 01:55:35;;;;;;;4.40;3.78;;;;;;;-0.67;100.00;96732.47;5012536;28;24478;-75
2021/11/23 01:58:04;;;;;;;6.10;3.88;;;;;;;-0.85;100.00;96734.25;5013160;28;24499;-76
2021/11/23 02:00:31;;;;;;;4.20;3.90;;;;;;;-0.70;100.00;96737.56;5012939;28;25030;-75
2021/11/23 02:02:58;;;;;;;5.10;4.20;;;;;;;-0.78;100.00;96729.97;5012862;28;24432;-75
2021/11/23 02:05:25;;;;;;;5.53;3.80;;;;;;;-0.94;100.00;96731.72;5012577;28;24431;-76
2021/11/23 02:07:51;;;;;;;4.32;3.92;;;;;;;-0.95;100.00;96727.50;5012607;28;24486;-76
2021/11/23 02:10:18;;;;;;;4.80;3.97;;;;;;;-0.88;100.00;96728.31;5012513;28;24440;-75
2021/11/23 02:12:45;;;;;;;4.63;4.22;;;;;;;-1.15;100.00;96729.22;5012628;28;24428;-76
2021/11/23 02:15:13;;;;;;;5.68;4.20;;;;;;;-1.20;100.00;96723.31;5012448;28;24431;-75
2021/11/23 02:17:42;;;;;;;5.18;4.15;;;;;;;-1.25;100.00;96719.06;5012518;28;24436;-75
2021/11/23 02:20:11;;;;;;;4.82;4.07;;;;;;;-1.20;100.00;96726.69;5012420;28;24966;-76
2021/11/23 02:22:38;;;;;;;4.82;4.35;;;;;;;-1.30;100.00;96728.41;5012373;28;24419;-75
2021/11/23 02:25:05;;;;;;;5.97;4.40;;;;;;;-1.23;100.00;96724.97;5012294;28;24419;-75
2021/11/23 02:27:32;;;;;;;5.53;4.93;;;;;;;-1.35;100.00;96721.63;5012616;28;24428;-75
2021/11/23 02:29:58;;;;;;;7.95;4.82;;;;;;;-1.20;100.00;96718.22;5012197;28;24989;-76
2021/11/23 02:32:25;;;;;;;4.78;4.38;;;;;;;-1.06;100.00;96716.50;5012465;28;24428;-75
2021/11/23 02:34:51;;;;;;;6.22;5.20;;;;;;;-1.00;100.00;96717.34;5011995;28;24988;-76
2021/11/23 02:37:19;;;;;;;6.15;5.10;;;;;;;-0.92;100.00;96714.78;5011910;28;24795;-75
2021/11/23 02:39:46;;;;;;;5.60;5.10;;;;;;;-0.95;100.00;96713.94;5012384;28;24521;-75
2021/11/23 02:42:12;;;;;;;5.43;4.93;;;;;;;-0.88;100.00;96713.91;5012014;28;25033;-75
2021/11/23 02:44:42;;;;;;;4.95;4.53;;;;;;;-0.74;100.00;96717.25;5012307;28;24447;-75
2021/11/23 02:47:09;;;;;;;5.07;4.57;;;;;;;-0.81;100.00;96709.66;5012079;28;24921;-76
2021/11/23 02:49:35;;;;;;;6.35;4.68;;;;;;;-0.73;100.00;96718.09;5011920;28;24432;-75
2021/11/23 02:52:02;;;;;;;4.85;4.45;;;;;;;-0.80;100.00;96716.44;5012110;28;24452;-75
2021/11/23 02:54:30;;;;;;;6.05;4.90;;;;;;;-0.81;100.00;96718.13;5011961;28;24428;-75
2021/11/23 02:56:57;;;;;;;5.20;4.70;;;;;;;-0.86;100.00;96722.38;5011775;28;24435;-76
2021/11/23 02:59:23;;;;;;;5.68;4.63;;;;;;;-0.89;100.00;96727.50;5012040;28;24425;-75
2021/11/23 03:01:50;;;;;;;5.00;4.60;;;;;;;-0.87;100.00;96719.84;5011046;28;24424;-75
2021/11/23 03:04:18;;;;;;;5.28;4.68;;;;;;;-1.04;100.00;96725.81;5011629;28;24416;-75
2021/11/23 03:06:45;;;;;;;5.00;4.50;;;;;;;-1.20;100.00;96716.53;5011497;28;24948;-75
2021/11/23 03:09:12;;;;;;;6.20;5.18;;;;;;;-1.15;100.00;96721.59;5011607;28;25040;-75
2021/11/23 03:11:40;;;;;;;5.70;5.20;;;;;;;-1.07;100.00;96713.13;5011566;28;24978;-75
2021/11/23 03:14:06;;;;;;;6.05;5.43;;;;;;;-1.33;100.00;96713.16;5011557;28;24432;-75
2021/11/23 03:16:33;;;;;;;5.70;5.17;;;;;;;-1.57;100.00;96723.31;5011276;28;24433;-75
2021/11/23 03:18:59;;;;;;;6.57;5.90;;;;;;;-1.79;100.00;96727.56;5011369;28;24444;-75
2021/11/23 03:21:26;;;;;;;6.90;6.20;;;;;;;-1.94;100.00;96730.91;5011654;28;24412;-75
2021/11/23 03:23:52;;;;;;;6.15;5.65;;;;;;;-1.95;100.00;96726.69;5011542;28;24432;-75
2021/11/23 03:26:18;;;;;;;6.80;6.20;;;;;;;-1.97;100.00;96725.84;5011250;28;24416;-75
2021/11/23 03:28:46;;;;;;;7.07;6.45;;;;;;;-1.91;100.00;96723.31;5011351;28;24421;-75
2021/11/23 03:31:13;;;;;;;7.78;6.40;;;;;;;-1.88;100.00;96728.41;5011159;28;24540;-75
2021/11/23 03:33:39;;;;;;;9.63;7.05;;;;;;;-1.76;100.00;96725.84;5011201;28;24423;-75
2021/11/23 03:36:06;;;;;;;7.80;6.50;;;;;;;-1.51;100.00;96723.34;5011078;28;24424;-75
2021/11/23 03:38:32;;;;;;;6.55;5.88;;;;;;;-1.42;100.00;96727.56;5011418;28;24799;-75
2021/11/23 03:40:59;;;;;;;6.30;5.80;;;;;;;-1.30;100.00;96722.44;5011158;28;24810;-75
2021/11/23 03:43:25;;;;;;;7.10;6.20;;;;;;;-1.32;100.00;96726.72;5011134;28;24439;-75
2021/11/23 03:45:53;;;;;;;6.15;5.55;;;;;;;-1.31;100.00;96723.31;5011107;28;24433;-75
2021/11/23 03:48:20;;;;;;;6.53;5.97;;;;;;;-1.36;100.00;96719.94;5011445;28;24421;-75
2021/11/23 03:50:46;;;;;;;8.15;5.82;;;;;;;-1.31;100.00;96720.78;5011062;28;24519;-75
2021/11/23 03:53:13;;;;;;;6.07;5.35;;;;;;;-1.26;100.00;96721.59;5011271;28;24822;-76
2021/11/23 03:55:40;;;;;;;6.33;5.53;;;;;;;-1.19;100.00;96727.53;5010639;28;24525;-75
2021/11/23 03:58:07;;;;;;;6.10;5.50;;;;;;;-1.18;100.00;96721.63;5010950;28;24889;-75
2021/11/23 04:00:33;;;;;;;6.28;5.78;;;;;;;-1.39;100.00;96725.88;5010837;28;24416;-75
2021/11/23 04:03:01;;;;;;;6.32;5.72;;;;;;;-1.38;100.00;96725.00;5010745;28;24954;-75
2021/11/23 04:05:28;;;;;;;6.10;5.50;;;;;;;-1.30;100.00;96723.31;5010828;28;24436;-75
2021/11/23 04:07:54;;;;;;;6.88;6.18;;;;;;;-1.39;100.00;96720.78;5011074;28;24428;-76
2021/11/23 04:10:22;;;;;;;6.47;5.45;;;;;;;-1.47;100.00;96720.78;5011178;28;24423;-76
2021/11/23 04:12:48;;;;;;;6.35;5.60;;;;;;;-1.39;100.00;96730.09;5013863;28;24448;-75
2021/11/23 04:15:17;;;;;;;6.70;6.10;;;;;;;-1.39;100.00;96725.88;5017527;28;24421;-76
2021/11/23 04:17:44;;;;;;;6.97;6.15;;;;;;;-1.46;100.00;96721.63;5017324;28;24427;-76
2021/11/23 04:20:13;;;;;;;9.25;6.38;;;;;;;-1.60;100.00;96716.53;5017564;28;24424;-76
2021/11/23 04:22:39;;;;;;;7.30;6.28;;;;;;;-1.50;100.00;96725.88;5017551;28;24427;-76
2021/11/23 04:25:08;;;;;;;6.75;6.15;;;;;;;-1.54;100.00;96719.09;5017177;28;24833;-76
2021/11/23 04:27:35;;;;;;;6.57;5.97;;;;;;;-1.64;100.00;96722.47;5017064;28;24428;-75
2021/11/23 04:30:01;;;;;;;6.53;5.90;;;;;;;-1.62;100.00;96723.34;5016994;28;25140;-75
2021/11/23 04:32:29;;;;;;;7.40;6.70;;;;;;;-1.72;100.00;96724.16;5017092;28;24440;-76
2021/11/23 04:34:55;;;;;;;8.00;6.30;;;;;;;-1.56;100.00;96728.44;5016990;28;24516;-76
2021/11/23 04:37:23;;;;;;;6.65;6.05;;;;;;;-1.54;100.00;96725.88;5017121;28;24432;-75
2021/11/23 04:39:52;;;;;;;6.13;5.63;;;;;;;-1.52;100.00;96722.50;5017390;28;24436;-75
2021/11/23 04:42:18;;;;;;;6.68;6.05;;;;;;;-1.53;100.00;96722.47;5016943;28;24428;-75
2021/11/23 04:44:45;;;;;;;6.68;5.90;;;;;;;-1.58;100.00;96729.25;5017322;28;24431;-75
2021/11/23 04:47:11;;;;;;;10.52;6.50;;;;;;;-1.57;100.00;96720.78;5016626;28;24989;-75
2021/11/23 04:49:37;;;;;;;8.95;6.40;;;;;;;-1.78;100.00;96727.56;5017385;28;24435;-76
2021/11/23 04:52:04;;;;;;;6.82;6.22;;;;;;;-1.67;100.00;96726.72;5016992;28;24457;-76
2021/11/23 04:54:33;;;;;;;6.93;6.28;;;;;;;-1.95;100.00;96724.16;5016604;28;24428;-76
2021/11/23 04:56:59;;;;;;;7.15;6.55;;;;;;;-2.03;100.00;96730.91;5008584;28;25070;-76
2021/11/23 04:59:26;;;;;;;7.63;6.55;;;;;;;-2.03;100.00;96731.75;5004124;28;24420;-76
2021/11/23 05:01:52;;;;;;;8.13;6.55;;;;;;;-2.00;100.00;96730.94;5016904;28;24431;-76
2021/11/23 05:04:19;;;;;;;7.33;6.63;;;;;;;-1.89;100.00;96729.25;5017053;28;24435;-75
2021/11/23 05:06:45;;;;;;;8.45;6.47;;;;;;;-1.91;100.00;96730.94;5010341;28;24433;-75
2021/11/23 05:09:11;;;;;;;7.20;6.47;;;;;;;-1.79;100.00;96743.63;5010880;28;24443;-76
2021/11/23 05:11:42;;;;;;;6.72;6.13;;;;;;;-1.80;100.00;96739.41;5014212;28;25008;-76
2021/11/23 05:14:09;;;;;;;7.00;6.35;;;;;;;-1.95;100.00;96750.38;5016439;28;25075;-76
2021/11/23 05:16:35;;;;;;;7.50;6.75;;;;;;;-1.98;100.00;96747.00;5016300;28;24467;-76
2021/11/23 05:19:02;;;;;;;6.90;6.30;;;;;;;-2.01;100.00;96744.44;5016527;28;24432;-76
2021/11/23 05:21:28;;;;;;;7.15;6.45;;;;;;;-1.92;100.00;96748.72;5016534;28;24980;-76
2021/11/23 05:23:55;;;;;;;7.97;6.32;;;;;;;-1.89;100.00;96741.94;5014412;28;24831;-75
2021/11/23 05:26:21;;;;;;;6.83;6.13;;;;;;;-1.80;100.00;96748.72;5012880;28;24460;-76
2021/11/23 05:28:49;;;;;;;6.70;6.18;;;;;;;-1.78;100.00;96740.28;5013117;28;24966;-76
2021/11/23 05:31:16;;;;;;;7.50;6.35;;;;;;;-1.86;100.00;96744.47;5013246;28;24451;-76
2021/11/23 05:33:42;;;;;;;7.65;6.72;;;;;;;-1.86;100.00;96749.53;5013474;28;24427;-75
2021/11/23 05:36:08;;;;;;;7.88;7.10;;;;;;;-1.88;100.00;96756.31;5012928;28;24428;-75
2021/11/23 05:38:35;;;;;;;8.00;7.20;;;;;;;-1.92;100.00;96749.56;5012937;28;24432;-76
2021/11/23 05:41:02;;;;;;;7.57;6.78;;;;;;;-1.90;100.00;96757.16;5013207;28;24417;-76
2021/11/23 05:43:28;;;;;;;6.97;6.28;;;;;;;-1.88;100.00;96753.78;5013160;28;24474;-76
2021/11/23 05:45:56;;;;;;;7.40;6.70;;;;;;;-1.80;100.00;96754.63;5012733;28;24466;-76
2021/11/23 05:48:23;;;;;;;7.40;6.60;;;;;;;-1.83;100.00;96758.88;5013077;28;24420;-75
2021/11/23 05:50:49;;;;;;;7.37;6.20;;;;;;;-1.81;100.00;96758.03;5012908;28;24429;-75
2021/11/23 05:53:16;;;;;;;7.28;6.60;;;;;;;-1.84;100.00;96763.09;5013029;28;24814;-76
2021/11/23 05:55:42;;;;;;;6.90;6.30;;;;;;;-1.86;100.00;96762.25;5012665;28;24428;-75
2021/11/23 05:58:10;;;;;;;7.47;6.73;;;;;;;-1.84;100.00;96763.09;5013104;28;24509;-76
2021/11/23 06:00:37;;;;;;;7.80;6.80;;;;;;;-1.99;100.00;96761.38;5012809;28;24427;-75
2021/11/23 06:03:05;;;;;;;7.60;6.85;;;;;;;-2.03;100.00;96758.84;5012763;28;24835;-75
2021/11/23 06:05:31;;;;;;;7.40;6.72;;;;;;;-2.00;100.00;96761.41;5012194;28;24475;-75
2021/11/23 06:07:58;;;;;;;7.43;6.70;;;;;;;-2.00;100.00;96769.00;5012688;28;24436;-76
2021/11/23 06:10:24;;;;;;;8.00;7.20;;;;;;;-1.96;100.00;96766.47;5012561;28;24625;-75
2021/11/23 06:12:51;;;;;;;8.88;7.43;;;;;;;-1.98;100.00;96764.75;5012429;28;24970;-75
2021/11/23 06:15:18;;;;;;;9.68;7.80;;;;;;;-2.11;100.00;96768.09;5012301;28;24443;-75
2021/11/23 06:17:46;;;;;;;9.70;7.90;;;;;;;-2.24;100.00;96767.22;5012553;28;24510;-76
2021/11/23 06:20:15;;;;;;;8.15;7.35;;;;;;;-2.25;100.00;96775.69;5012266;28;24435;-76
2021/11/23 06:22:41;;;;;;;8.23;7.50;;;;;;;-2.28;100.00;96774.00;5012362;28;24763;-75
2021/11/23 06:25:09;;;;;;;8.48;7.65;;;;;;;-2.33;100.00;96763.00;5012069;28;24424;-76
2021/11/23 06:27:36;;;;;;;8.10;7.40;;;;;;;-2.44;100.00;96769.72;5012133;28;24439;-75
2021/11/23 06:30:04;;;;;;;8.55;7.68;;;;;;;-2.62;100.00;96767.94;5012023;28;24531;-75
2021/11/23 06:32:30;;;;;;;8.52;7.63;;;;;;;-2.76;100.00;96767.88;5011840;28;24524;-75
2021/11/23 06:34:57;;;;;;;7.93;7.13;;;;;;;-2.75;100.00;96769.56;5011543;28;24424;-75
2021/11/23 06:37:24;;;;;;;9.18;7.55;;;;;;;-2.73;100.00;96769.56;5010905;28;24445;-76
2021/11/23 06:39:51;;;;;;;9.68;7.72;;;;;;;-2.89;100.00;96781.31;5011783;28;24432;-76
2021/11/23 06:42:17;;;;;;;8.00;7.20;;;;;;;-2.78;100.00;96789.84;5011481;28;24427;-75
2021/11/23 06:44:44;;;;;;;7.93;7.22;;;;;;;-2.73;100.00;96789.84;5011271;28;24486;-76
2021/11/23 06:47:10;;;;;;;8.65;7.75;;;;;;;-2.73;100.00;96800.00;5011242;28;24435;-76
2021/11/23 06:49:37;;;;;;;8.50;7.70;;;;;;;-2.50;100.00;96802.66;5011971;28;24520;-76
2021/11/23 06:52:03;;;;;;;8.60;7.70;;;;;;;-2.34;100.00;96811.16;5011830;28;24444;-76
2021/11/23 06:54:32;;;;;;;8.13;7.32;;;;;;;-2.44;100.00;96805.22;5011931;28;24428;-76
2021/11/23 06:56:58;;;;;;;8.30;7.20;;;;;;;-2.43;100.00;96806.91;5011427;28;24420;-76
2021/11/23 06:59:25;;;;;;;9.05;7.70;;;;;;;-2.36;100.00;96805.25;5011659;28;24423;-76
2021/11/23 07:01:51;;;;;;;8.32;7.45;;;;;;;-2.30;100.00;96813.75;5011472;28;24428;-77
2021/11/23 07:04:18;;;;;;;8.07;7.28;;;;;;;-2.53;100.00;96805.16;5011851;28;24423;-75
2021/11/23 07:06:46;;;;;;;8.85;7.95;;;;;;;-2.70;100.00;96818.63;5011266;28;24514;-77
2021/11/23 07:09:13;;;;;;;7.57;6.97;;;;;;;-2.74;100.00;96819.44;5011829;28;24485;-77
2021/11/23 07:11:41;;;;;;;8.45;7.60;;;;;;;-2.65;100.00;96821.16;5000763;28;25028;-75
2021/11/23 07:14:07;;;;;;;11.00;8.25;;;;;;;-2.63;100.00;96826.25;5010042;28;24455;-76
2021/11/23 07:16:34;;;;;;;9.50;8.27;;;;;;;-2.47;100.00;96822.97;5008208;28;24471;-75
2021/11/23 07:19:00;;;;;;;9.88;8.65;;;;;;;-2.39;100.00;96826.38;5011393;28;24427;-75
2021/11/23 07:21:27;;;;;;;8.55;7.43;;;;;;;-2.18;100.00;96834.94;5011258;28;24933;-75
2021/11/23 07:23:53;;;;;;;8.50;7.70;;;;;;;-2.09;100.00;96830.72;5011216;28;24478;-75
2021/11/23 07:26:20;;;;;;;12.10;8.77;;;;;;;-2.12;100.00;96827.34;5010957;28;24478;-76
2021/11/23 07:28:48;;;;;;;9.50;8.63;;;;;;;-1.93;100.00;96825.69;5010781;28;24432;-74
2021/11/23 07:31:14;;;;;;;8.97;8.17;;;;;;;-1.75;100.00;96831.66;5011030;28;24441;-74
2021/11/23 07:33:41;;;;;;;9.48;8.02;;;;;;;-1.68;100.00;96835.06;5008785;28;24451;-74
2021/11/23 07:36:07;;;;;;;10.60;7.72;;;;;;;-1.69;100.00;96830.00;4991110;28;24978;-75
2021/11/23 07:38:34;;;;;;;8.73;7.93;;;;;;;-1.68;100.00;96834.22;4991424;28;24424;-75
2021/11/23 07:41:00;;;;;;;9.52;7.65;;;;;;;-1.48;100.00;96830.91;5003465;28;24435;-74
2021/11/23 07:43:26;;;;;;;8.73;7.97;;;;;;;-1.40;100.00;96838.53;5010620;28;25156;-75
2021/11/23 07:45:54;;;;;;;9.52;8.60;;;;;;;-1.25;100.00;96837.69;5010715;28;24432;-75
2021/11/23 07:48:21;;;;;;;8.70;7.90;;;;;;;-1.08;100.00;96846.16;5010596;28;24427;-74
2021/11/23 07:50:47;;;;;;;9.48;8.48;;;;;;;-1.11;100.00;96847.84;5010810;28;24478;-75
2021/11/23 07:53:14;;;;;;;9.40;8.48;;;;;;;-1.05;100.00;96845.31;5010483;28;24448;-75
2021/11/23 07:55:41;;;;;;;8.93;8.02;;;;;;;-0.94;100.00;96846.16;5010255;28;24955;-75
2021/11/23 07:58:07;;;;;;;9.15;8.35;;;;;;;-0.79;100.00;96845.28;5010470;28;24523;-75
2021/11/23 08:00:34;;;;;;;8.80;8.00;;;;;;;-0.67;100.00;96844.41;5010450;28;24435;-74
2021/11/23 08:03:02;;;;;;;8.90;8.05;;;;;;;-0.63;100.00;96846.97;5011116;28;24425;-75
2021/11/23 08:05:28;;;;;;;9.25;8.38;;;;;;;-0.56;100.00;96842.69;5010573;28;24496;-75
2021/11/23 08:07:55;;;;;;;8.48;7.65;;;;;;;-0.66;100.00;96846.13;5010680;28;24791;-74
2021/11/23 08:10:21;;;;;;;7.70;7.10;;;;;;;-0.70;100.00;96849.50;5003356;28;24436;-74
2021/11/23 08:12:47;;;;;;;8.27;7.53;;;;;;;-0.60;100.00;96856.28;4991320;28;24468;-75
2021/11/23 08:15:14;;;;;;;9.65;8.65;;;;;;;-0.59;100.00;96850.38;4990856;28;24982;-74
2021/11/23 08:17:40;;;;;;;9.98;8.93;;;;;;;-0.77;100.00;96861.41;4991402;28;24819;-74
2021/11/23 08:20:11;;;;;;;9.77;8.70;;;;;;;-0.69;100.00;96862.25;4991265;28;24516;-74
2021/11/23 08:22:38;;;;;;;8.90;8.02;;;;;;;-0.75;100.00;96864.78;4991955;28;24856;-75
2021/11/23 08:25:05;;;;;;;9.55;8.68;;;;;;;-0.39;100.00;96863.03;4990392;28;24424;-74
2021/11/23 08:27:32;;;;;;;9.48;8.48;;;;;;;-0.51;100.00;96869.84;4991257;28;24432;-75
2021/11/23 08:29:59;;;;;;;10.35;9.10;;;;;;;-0.72;100.00;96874.97;4991021;28;24428;-75
2021/11/23 08:32:25;;;;;;;8.30;7.60;;;;;;;-0.60;100.00;96869.00;4991145;28;24437;-76
2021/11/23 08:34:52;;;;;;;9.52;8.52;;;;;;;-0.49;100.00;96869.84;4990737;28;24435;-75
2021/11/23 08:37:20;;;;;;;9.57;8.68;;;;;;;-0.41;100.00;96873.22;4990928;28;24429;-75
2021/11/23 08:39:47;;;;;;;9.97;8.80;;;;;;;-0.44;100.00;96874.94;4993411;28;24436;-76
2021/11/23 08:42:18;;;;;;;9.80;8.88;;;;;;;-0.14;100.00;96877.41;5010812;28;24428;-75
2021/11/23 08:44:44;;;;;;;9.05;8.20;;;;;;;0.18;100.00;96879.81;5010726;28;24532;-75
2021/11/23 08:47:10;;;;;;;11.13;9.70;;;;;;;0.39;100.00;96875.47;5010299;28;24428;-74
2021/11/23 08:49:37;;;;;;;11.27;8.10;;;;;;;0.73;100.00;96879.50;5003257;28;24487;-74
2021/11/23 08:52:04;;;;;;;9.30;8.40;;;;;;;0.97;100.00;96870.00;5009810;28;24436;-74
2021/11/23 08:54:32;;;;;;;8.93;8.13;;;;;;;1.09;100.00;96875.00;5010262;28;24767;-74
2021/11/23 08:57:02;;;;;;;8.15;7.35;;;;;;;1.45;100.00;96873.84;5010073;28;24993;-77
2021/11/23 08:59:29;;;;;;;9.63;7.97;;;;;;;1.47;100.00;96878.94;5011363;28;24420;-73
2021/11/23 09:01:56;;;;;;;10.07;7.65;;;;;;;1.60;100.00;96874.56;5013642;28;24894;-73
2021/11/23 09:04:22;;;;;;;9.63;7.93;;;;;;;1.56;100.00;96876.31;5010823;28;24428;-74
2021/11/23 09:06:48;;;;;;;8.07;7.28;;;;;;;1.86;99.95;96874.31;5012903;28;24439;-74
2021/11/23 09:09:15;;;;;;;7.82;7.07;;;;;;;1.91;100.00;96868.25;5013967;28;24443;-73
2021/11/23 09:11:43;;;;;;;7.93;7.13;;;;;;;2.03;100.00;96876.66;4995469;28;24433;-73
2021/11/23 09:14:10;;;;;;;9.95;6.75;;;;;;;2.14;100.00;96878.22;4994063;28;24816;-73
2021/11/23 09:16:37;;;;;;;8.02;7.22;;;;;;;2.40;96.56;96879.59;5004116;28;24824;-74
2021/11/23 09:19:05;;;;;;;8.23;6.82;;;;;;;2.28;96.53;96884.88;5013531;28;24447;-73
2021/11/23 09:21:31;;;;;;;7.57;6.88;;;;;;;2.27;98.63;96884.03;5013446;28;24440;-74
2021/11/23 09:23:58;;;;;;;8.23;6.70;;;;;;;2.37;97.69;96877.97;5013581;28;24432;-75
2021/11/23 09:26:26;;;;;;;7.97;6.40;;;;;;;2.37;95.47;96885.63;5013330;28;24439;-74
2021/11/23 09:28:54;;;;;;;7.45;6.65;;;;;;;2.48;96.67;96876.94;5013484;28;24795;-74
2021/11/23 09:31:21;;;;;;;7.38;6.68;;;;;;;2.47;97.61;96891.44;5012947;28;24462;-74
2021/11/23 09:33:48;;;;;;;10.15;7.35;;;;;;;2.23;96.73;96891.78;5012940;28;24448;-74
2021/11/23 09:36:14;;;;;;;7.35;6.65;;;;;;;2.42;95.09;96893.22;5012853;28;24435;-74
2021/11/23 09:38:41;;;;;;;7.47;6.78;;;;;;;2.41;95.42;96891.50;5013003;28;25028;-72
2021/11/23 09:41:08;;;;;;;8.20;7.47;;;;;;;2.58;97.22;96891.31;5013024;28;24443;-75
2021/11/23 09:43:35;;;;;;;7.47;6.72;;;;;;;2.76;94.58;96888.50;5013137;28;24421;-75
2021/11/23 09:46:03;;;;;;;7.40;6.60;;;;;;;2.57;97.48;96880.25;5013277;28;24439;-74
2021/11/23 09:48:30;;;;;;;7.93;6.85;;;;;;;2.80;98.02;96881.63;5013140;28;24420;-74
2021/11/23 09:50:57;;;;;;;7.45;6.47;;;;;;;3.06;95.28;96886.34;5013256;28;24417;-74
2021/11/23 09:53:24;;;;;;;7.97;7.10;;;;;;;3.00;94.16;96894.97;5012997;28;24456;-74
2021/11/23 09:55:52;;;;;;;7.60;6.57;;;;;;;3.08;95.06;96898.28;5012746;28;24498;-74
2021/11/23 09:58:18;;;;;;;6.80;6.20;;;;;;;3.23;92.68;96892.06;5013072;28;24775;-74
2021/11/23 10:00:48;;;;;;;6.85;5.88;;;;;;;3.26;93.98;96893.72;5012694;28;24431;-74
2021/11/23 10:03:25;;;;;;;6.57;5.95;;;;;;;3.38;93.59;96883.28;5012910;28;24436;-75
2021/11/23 10:05:52;;;;;;;7.43;6.25;;;;;;;3.41;93.22;96885.78;5012473;28;24943;-74
2021/11/23 10:08:20;;;;;;;7.45;6.28;;;;;;;3.43;92.97;96878.09;5012762;28;24412;-74
2021/11/23 10:10:49;;;;;;;6.60;6.00;;;;;;;3.43;94.77;96878.09;5001726;28;24432;-75
2021/11/23 10:13:16;;;;;;;7.13;5.97;;;;;;;3.21;91.01;96877.59;4998702;28;24502;-75
2021/11/23 10:15:46;;;;;;;7.90;6.63;;;;;;;3.60;91.34;96870.97;5003910;28;24504;-74
2021/11/23 10:18:15;;;;;;;11.05;6.13;;;;;;;3.69;92.28;96868.22;5012411;28;24433;-75
2021/11/23 10:20:44;;;;;;;6.88;5.75;;;;;;;3.87;89.62;96867.03;5012613;28;24802;-75
2021/11/23 10:23:17;;;;;;;6.40;5.65;;;;;;;3.82;89.24;96872.25;5012494;28;24541;-75
2021/11/23 10:25:46;;;;;;;6.40;5.80;;;;;;;3.95;87.31;96872.88;5010718;28;24537;-74
2021/11/23 10:28:13;;;;;;;6.90;6.00;;;;;;;3.85;87.41;96867.06;5007934;28;24427;-75
2021/11/23 10:30:41;;;;;;;6.95;5.82;;;;;;;3.95;88.50;96866.91;5000143;28;24441;-75
2021/11/23 10:33:07;;;;;;;5.60;5.10;;;;;;;3.70;90.34;96869.91;5012230;28;24522;-74
2021/11/23 10:35:37;;;;;;;9.23;5.50;;;;;;;3.71;86.49;96868.19;5007981;28;24432;-74
2021/11/23 10:38:07;;;;;;;6.68;4.57;;;;;;;3.73;86.30;96869.84;5006683;28;24440;-75
2021/11/23 10:40:34;;;;;;;7.38;4.90;;;;;;;3.87;88.92;96860.19;5011687;28;24479;-75
2021/11/23 10:43:04;;;;;;;8.23;5.03;;;;;;;3.67;85.05;96854.63;5004265;28;24436;-75
2021/11/23 10:45:35;;;;;;;6.50;5.07;;;;;;;3.51;84.00;96848.91;5010075;28;24479;-75
2021/11/23 10:48:03;;;;;;;6.95;5.35;;;;;;;3.82;90.59;96845.75;5007680;28;24471;-75
2021/11/23 10:50:30;;;;;;;5.15;4.65;;;;;;;3.77;86.17;96848.41;5004437;28;24472;-75
2021/11/23 10:53:08;;;;;;;6.80;5.20;;;;;;;3.84;88.46;96851.72;5009994;28;24819;-75
2021/11/23 10:55:37;;;;;;;7.03;4.90;;;;;;;3.70;88.54;96846.00;5008596;28;24443;-73
2021/11/23 10:58:06;;;;;;;5.53;5.03;;;;;;;3.45;85.36;96846.47;5004488;28;24471;-75
2021/11/23 11:00:35;;;;;;;6.20;5.55;;;;;;;3.44;86.64;96842.19;5012407;28;24463;-76
2021/11/23 11:03:02;;;;;;;5.93;5.38;;;;;;;3.43;88.80;96843.06;5004244;28;24429;-76
2021/11/23 11:05:34;;;;;;;6.95;5.32;;;;;;;3.45;86.55;96841.34;5011571;28;24467;-75
2021/11/23 11:08:01;;;;;;;5.72;5.20;;;;;;;3.50;89.86;96839.53;5011861;28;24427;-75
2021/11/23 11:10:30;;;;;;;11.40;5.85;;;;;;;3.40;89.25;96841.41;5011428;28;24429;-75
2021/11/23 11:12:58;;;;;;;5.80;5.30;;;;;;;3.29;88.30;96843.31;5005260;28;24433;-75
2021/11/23 11:15:31;;;;;;;6.38;5.25;;;;;;;3.32;88.04;96833.00;5011231;28;24513;-75
2021/11/23 11:17:58;;;;;;;6.60;5.63;;;;;;;3.38;92.67;96821.84;5011434;28;24455;-75
2021/11/23 11:20:41;;;;;;;5.97;5.28;;;;;;;3.40;94.29;96825.19;5011648;28;24423;-75
2021/11/23 11:23:10;;;;;;;6.35;5.75;;;;;;;3.52;90.13;96826.69;5008279;28;24440;-75
2021/11/23 11:26:11;;;;;;;6.60;5.55;;;;;;;3.48;90.66;96820.78;5000747;28;25003;-76
2021/11/23 11:28:45;;;;;;;6.55;5.50;;;;;;;3.58;89.30;96824.88;5011543;28;24435;-76